createdAt,value
2023-07-18T00:01:43.322Z,89.00
2023-07-18T00:04:11.682Z,88.60
2023-07-18T00:06:43.347Z,88.60
2023-07-18T00:09:12.442Z,88.10
2023-07-18T00:11:40.861Z,88.30
2023-07-18T00:14:09.269Z,88.80
2023-07-18T00:16:39.372Z,89.00
2023-07-18T00:19:07.536Z,89.40
2023-07-18T00:21:36.192Z,89.10
2023-07-18T00:24:05.862Z,88.90
2023-07-18T00:26:34.435Z,88.60
2023-07-18T00:29:02.761Z,88.30
2023-07-18T00:31:31.449Z,87.70
2023-07-18T00:34:01.435Z,87.70
2023-07-18T00:36:30.886Z,87.90
2023-07-18T00:38:59.140Z,87.30
2023-07-18T00:41:27.272Z,86.60
2023-07-18T00:43:56.917Z,86.70
2023-07-18T00:46:25.133Z,88.00
2023-07-18T00:48:55.587Z,89.00
2023-07-18T00:51:26.659Z,89.50
2023-07-18T00:53:55.527Z,89.30
2023-07-18T00:56:23.836Z,90.20
2023-07-18T00:58:52.337Z,90.30
2023-07-18T01:01:20.811Z,90.40
2023-07-18T01:03:49.802Z,89.80
2023-07-18T01:06:19.298Z,89.80
2023-07-18T01:08:50.888Z,88.90
2023-07-18T01:11:20.013Z,89.50
2023-07-18T01:13:48.842Z,90.30
2023-07-18T01:16:17.167Z,90.50
2023-07-18T01:18:45.715Z,91.10
2023-07-18T01:21:18.810Z,91.60
2023-07-18T01:23:48.525Z,91.60
2023-07-18T01:26:18.007Z,91.30
2023-07-18T01:28:46.136Z,91.50
2023-07-18T01:31:15.086Z,91.30
2023-07-18T01:33:45.123Z,91.60
2023-07-18T01:36:13.535Z,91.80
2023-07-18T01:38:43.104Z,92.00
2023-07-18T01:41:11.467Z,91.90
2023-07-18T01:43:39.599Z,91.90
2023-07-18T01:46:10.186Z,91.90
2023-07-18T01:48:39.588Z,91.60
2023-07-18T01:51:09.182Z,91.50
2023-07-18T01:53:37.453Z,91.30
2023-07-18T01:56:07.726Z,91.70
2023-07-18T01:58:35.860Z,91.60
2023-07-18T02:01:05.272Z,91.50
2023-07-18T02:03:33.961Z,91.80
2023-07-18T02:06:02.226Z,92.30
2023-07-18T02:08:30.816Z,92.30
2023-07-18T02:10:58.904Z,92.20
2023-07-18T02:13:28.733Z,92.00
2023-07-18T02:15:56.886Z,92.00
2023-07-18T02:18:25.585Z,91.80
2023-07-18T02:20:54.066Z,91.50
2023-07-18T02:23:22.490Z,91.60
2023-07-18T02:25:50.682Z,91.90
2023-07-18T02:28:19.711Z,91.70
2023-07-18T02:30:49.222Z,91.90
2023-07-18T02:33:19.437Z,91.70
2023-07-18T02:35:49.711Z,91.80
2023-07-18T02:38:17.817Z,92.00
2023-07-18T02:40:46.933Z,92.10
2023-07-18T02:43:15.031Z,91.80
2023-07-18T02:45:43.678Z,92.10
2023-07-18T02:48:13.125Z,92.10
2023-07-18T02:50:43.071Z,92.30
2023-07-18T02:53:11.604Z,92.20
2023-07-18T02:55:39.706Z,92.40
2023-07-18T02:58:08.143Z,92.70
2023-07-18T03:00:37.237Z,92.70
2023-07-18T03:03:06.022Z,93.10
2023-07-18T03:05:35.621Z,93.30
2023-07-18T03:08:04.897Z,93.30
2023-07-18T03:10:32.996Z,93.30
2023-07-18T03:13:01.459Z,93.40
2023-07-18T03:15:30.260Z,93.60
2023-07-18T03:17:58.391Z,93.70
2023-07-18T03:20:28.118Z,93.90
2023-07-18T03:22:57.968Z,93.80
2023-07-18T03:25:26.785Z,93.70
2023-07-18T03:27:56.616Z,93.70
2023-07-18T03:30:25.183Z,94.00
2023-07-18T03:32:53.338Z,94.30
2023-07-18T03:35:21.952Z,94.70
2023-07-18T03:37:50.154Z,95.40
2023-07-18T03:40:19.976Z,95.70
2023-07-18T03:42:48.960Z,96.10
2023-07-18T03:45:18.297Z,96.50
2023-07-18T03:47:46.798Z,96.80
2023-07-18T03:50:16.327Z,97.00
2023-07-18T03:52:44.492Z,97.10
2023-07-18T03:55:13.034Z,97.20
2023-07-18T03:57:43.287Z,97.10
2023-07-18T04:00:15.753Z,96.90
2023-07-18T04:02:47.046Z,96.60
2023-07-18T04:05:16.382Z,96.60
2023-07-18T04:07:45.518Z,96.90
2023-07-18T04:10:14.269Z,96.70
2023-07-18T04:12:44.629Z,97.10
2023-07-18T04:15:13.917Z,97.20
2023-07-18T04:17:42.144Z,97.70
2023-07-18T04:20:11.720Z,97.50
2023-07-18T04:22:40.094Z,97.40
2023-07-18T04:25:09.167Z,97.40
2023-07-18T04:27:37.434Z,97.40
2023-07-18T04:30:08.047Z,97.30
2023-07-18T04:32:36.217Z,97.50
2023-07-18T04:35:07.500Z,97.60
2023-07-18T04:37:35.824Z,97.90
2023-07-18T04:40:07.379Z,98.50
2023-07-18T04:42:35.658Z,98.70
2023-07-18T04:45:04.134Z,98.60
2023-07-18T04:47:34.452Z,98.80
2023-07-18T04:50:02.986Z,98.90
2023-07-18T04:52:31.582Z,98.80
2023-07-18T04:55:00.157Z,98.70
2023-07-18T04:57:30.137Z,98.60
2023-07-18T04:59:59.005Z,98.70
2023-07-18T05:02:27.139Z,98.60
2023-07-18T05:04:58.037Z,98.50
2023-07-18T05:07:26.489Z,98.50
2023-07-18T05:09:54.680Z,98.30
2023-07-18T05:12:23.262Z,98.10
2023-07-18T05:14:51.366Z,97.90
2023-07-18T05:17:19.766Z,98.00
2023-07-18T05:19:47.895Z,98.00
2023-07-18T05:22:17.773Z,97.80
2023-07-18T05:24:46.004Z,98.00
2023-07-18T05:27:15.459Z,97.80
2023-07-18T05:29:43.600Z,97.70
2023-07-18T05:32:12.058Z,97.40
2023-07-18T05:34:40.546Z,97.20
2023-07-18T05:37:08.639Z,97.00
2023-07-18T05:39:38.522Z,97.00
2023-07-18T05:42:07.022Z,96.60
2023-07-18T05:44:35.520Z,95.90
2023-07-18T05:47:03.696Z,95.70
2023-07-18T05:49:31.851Z,94.90
2023-07-18T05:52:00.148Z,94.20
2023-07-18T05:54:30.411Z,94.20
2023-07-18T05:57:00.331Z,93.80
2023-07-18T05:59:29.257Z,92.90
2023-07-18T06:01:58.196Z,91.50
2023-07-18T06:04:26.471Z,91.10
2023-07-18T06:06:57.262Z,91.30
2023-07-18T06:09:25.681Z,91.30
2023-07-18T06:11:54.616Z,90.70
2023-07-18T06:14:24.308Z,90.40
2023-07-18T06:16:56.507Z,90.20
2023-07-18T06:19:24.819Z,90.40
2023-07-18T06:21:53.250Z,90.40
2023-07-18T06:24:21.678Z,90.20
2023-07-18T06:26:51.251Z,89.40
2023-07-18T06:29:20.201Z,89.80
2023-07-18T06:31:50.742Z,90.10
2023-07-18T06:34:19.135Z,88.70
2023-07-18T06:36:47.964Z,89.70
2023-07-18T06:39:18.391Z,87.80
2023-07-18T06:41:47.536Z,86.90
2023-07-18T06:44:16.986Z,85.10
2023-07-18T06:46:45.361Z,84.50
2023-07-18T06:49:16.677Z,83.90
2023-07-18T06:51:44.767Z,83.10
2023-07-18T06:54:13.810Z,82.50
2023-07-18T06:56:43.732Z,82.50
2023-07-18T06:59:12.238Z,80.60
2023-07-18T07:01:40.458Z,79.30
2023-07-18T07:04:09.161Z,72.10
2023-07-18T07:06:43.306Z,72.80
2023-07-18T07:09:13.967Z,72.50
2023-07-18T07:11:42.464Z,73.00
2023-07-18T07:14:12.649Z,71.10
2023-07-18T07:16:42.248Z,74.00
2023-07-18T07:19:10.490Z,71.40
2023-07-18T07:21:40.391Z,72.90
2023-07-18T07:24:09.503Z,73.60
2023-07-18T07:26:39.094Z,69.70
2023-07-18T07:29:08.227Z,68.10
2023-07-18T07:31:38.907Z,68.90
2023-07-18T07:34:07.373Z,69.70
2023-07-18T07:36:36.038Z,70.40
2023-07-18T07:39:05.835Z,69.60
2023-07-18T07:41:34.438Z,68.60
2023-07-18T07:44:02.582Z,69.60
2023-07-18T07:46:33.522Z,68.30
2023-07-18T07:49:05.331Z,69.60
2023-07-18T07:51:34.659Z,67.30
2023-07-18T07:54:03.622Z,67.90
2023-07-18T07:56:33.155Z,72.80
2023-07-18T07:59:11.004Z,67.10
2023-07-18T08:01:40.378Z,71.00
2023-07-18T08:04:09.760Z,67.90
2023-07-18T08:06:37.951Z,67.90
2023-07-18T08:09:08.407Z,65.00
2023-07-18T08:11:38.452Z,66.70
2023-07-18T08:14:06.876Z,64.10
2023-07-18T08:16:35.200Z,64.40
2023-07-18T08:19:03.488Z,65.60
2023-07-18T08:21:32.041Z,66.40
2023-07-18T08:24:00.561Z,66.10
2023-07-18T08:26:32.542Z,63.90
2023-07-18T08:29:02.521Z,65.80
2023-07-18T08:31:35.125Z,64.40
2023-07-18T08:34:04.084Z,65.40
2023-07-18T08:36:32.452Z,67.40
2023-07-18T08:39:00.833Z,65.10
2023-07-18T08:41:29.664Z,64.40
2023-07-18T08:43:58.000Z,71.10
2023-07-18T08:46:27.792Z,66.30
2023-07-18T08:48:57.541Z,62.90
2023-07-18T08:51:26.045Z,63.60
2023-07-18T08:53:54.859Z,65.20
2023-07-18T08:56:23.105Z,65.20
2023-07-18T08:58:51.375Z,63.30
2023-07-18T09:01:20.279Z,62.80
2023-07-18T09:03:50.091Z,63.30
2023-07-18T09:06:19.617Z,63.40
2023-07-18T09:08:48.219Z,63.90
2023-07-18T09:11:19.966Z,65.30
2023-07-18T09:13:48.998Z,64.70
2023-07-18T09:16:18.641Z,65.00
2023-07-18T09:18:50.835Z,64.20
2023-07-18T09:21:22.409Z,64.00
2023-07-18T09:23:51.441Z,63.40
2023-07-18T09:26:23.502Z,64.80
2023-07-18T09:28:53.230Z,62.90
2023-07-18T09:31:22.899Z,61.30
2023-07-18T09:33:51.993Z,62.80
2023-07-18T09:36:23.025Z,61.10
2023-07-18T09:38:51.677Z,60.80
2023-07-18T09:41:21.891Z,61.40
2023-07-18T09:43:51.006Z,62.10
2023-07-18T09:46:19.165Z,60.20
2023-07-18T09:48:50.292Z,60.60
2023-07-18T09:51:23.781Z,59.30
2023-07-18T09:53:55.025Z,60.20
2023-07-18T09:56:24.347Z,59.80
2023-07-18T09:58:52.858Z,60.90
2023-07-18T10:01:22.125Z,60.90
2023-07-18T10:03:54.178Z,60.20
2023-07-18T10:06:24.328Z,60.50
2023-07-18T10:08:53.515Z,59.70
2023-07-18T10:11:22.038Z,60.10
2023-07-18T10:14:09.556Z,59.70
2023-07-18T10:16:37.833Z,58.90
2023-07-18T10:19:17.768Z,59.30
2023-07-18T10:21:47.787Z,59.70
2023-07-18T10:24:33.810Z,58.60
2023-07-18T10:27:08.997Z,58.10
2023-07-18T10:29:40.001Z,59.10
2023-07-18T10:32:11.280Z,59.00
2023-07-18T10:34:40.108Z,58.30
2023-07-18T10:37:09.919Z,58.30
2023-07-18T10:39:40.605Z,58.10
2023-07-18T10:42:09.807Z,57.60
2023-07-18T10:44:39.295Z,57.60
2023-07-18T10:47:14.630Z,58.10
2023-07-18T10:49:43.520Z,58.00
2023-07-18T10:52:13.525Z,57.70
2023-07-18T10:54:44.851Z,58.00
2023-07-18T10:57:13.391Z,57.20
2023-07-18T10:59:43.298Z,57.60
2023-07-18T11:02:12.451Z,57.70
2023-07-18T11:04:40.995Z,57.40
2023-07-18T11:07:10.834Z,57.10
2023-07-18T11:09:40.321Z,56.90
2023-07-18T11:12:09.408Z,57.00
2023-07-18T11:14:39.549Z,56.90
2023-07-18T11:17:11.245Z,57.20
2023-07-18T11:19:39.842Z,57.50
2023-07-18T11:22:08.497Z,56.50
2023-07-18T11:24:36.764Z,56.90
2023-07-18T11:27:19.044Z,56.00
2023-07-18T11:29:57.040Z,54.80
2023-07-18T11:32:33.742Z,54.70
2023-07-18T11:35:02.893Z,55.60
2023-07-18T11:37:36.398Z,56.20
2023-07-18T11:40:10.649Z,57.20
2023-07-18T11:42:46.942Z,57.30
2023-07-18T11:45:17.962Z,56.00
2023-07-18T11:47:49.526Z,56.20
2023-07-18T11:50:17.777Z,56.40
2023-07-18T11:52:48.074Z,56.50
2023-07-18T11:55:17.172Z,56.70
2023-07-18T11:57:49.874Z,57.10
2023-07-18T12:00:18.767Z,57.20
2023-07-18T12:02:49.132Z,56.90
2023-07-18T12:05:20.934Z,58.20
2023-07-18T12:07:49.567Z,58.70
2023-07-18T12:10:19.652Z,58.50
2023-07-18T12:12:49.282Z,58.60
2023-07-18T12:15:17.645Z,57.10
2023-07-18T12:17:45.826Z,57.40
2023-07-18T12:20:15.113Z,58.40
2023-07-18T12:22:43.521Z,58.70
2023-07-18T12:25:11.800Z,59.20
2023-07-18T12:27:40.216Z,59.40
2023-07-18T12:30:13.448Z,60.30
2023-07-18T12:32:42.336Z,62.40
2023-07-18T12:35:10.686Z,63.20
2023-07-18T12:37:39.532Z,64.00
2023-07-18T12:40:08.623Z,64.10
2023-07-18T12:42:37.094Z,64.80
2023-07-18T12:45:05.463Z,66.70
2023-07-18T12:47:35.259Z,67.20
2023-07-18T12:50:05.064Z,68.20
2023-07-18T12:52:33.948Z,70.70
2023-07-18T12:55:02.226Z,73.30
2023-07-18T12:57:32.489Z,74.80
2023-07-18T13:00:01.134Z,74.50
2023-07-18T13:02:30.202Z,75.80
2023-07-18T13:04:59.739Z,77.40
2023-07-18T13:07:27.829Z,78.40
2023-07-18T13:09:56.273Z,78.70
2023-07-18T13:12:24.671Z,80.20
2023-07-18T13:14:52.874Z,80.70
2023-07-18T13:17:22.338Z,79.60
2023-07-18T13:19:50.556Z,79.40
2023-07-18T13:22:20.871Z,81.40
2023-07-18T13:24:49.084Z,80.10
2023-07-18T13:27:17.725Z,82.60
2023-07-18T13:29:46.490Z,84.00
2023-07-18T13:32:14.971Z,84.30
2023-07-18T13:34:43.180Z,86.60
2023-07-18T13:37:11.368Z,90.60
2023-07-18T13:39:42.753Z,90.30
2023-07-18T13:42:11.135Z,90.40
2023-07-18T13:44:39.273Z,87.80
2023-07-18T13:47:08.223Z,88.70
2023-07-18T13:49:49.957Z,83.20
2023-07-18T13:52:20.630Z,82.00
2023-07-18T13:54:51.999Z,85.70
2023-07-18T13:57:20.323Z,84.20
2023-07-18T13:59:49.474Z,83.80
2023-07-18T14:02:17.628Z,83.80
2023-07-18T14:04:46.205Z,82.80
2023-07-18T14:07:15.817Z,83.50
2023-07-18T14:09:44.639Z,83.00
2023-07-18T14:12:14.177Z,83.20
2023-07-18T14:14:42.520Z,83.20
2023-07-18T14:17:10.946Z,82.00
2023-07-18T14:19:39.028Z,82.70
2023-07-18T14:22:07.540Z,83.30
2023-07-18T14:24:35.659Z,83.40
2023-07-18T14:27:04.495Z,82.70
2023-07-18T14:29:34.095Z,79.30
2023-07-18T14:32:02.530Z,80.30
2023-07-18T14:34:31.654Z,81.90
2023-07-18T14:37:00.144Z,80.60
2023-07-18T14:39:29.050Z,80.60
2023-07-18T14:41:57.407Z,78.50
2023-07-18T14:44:25.764Z,79.60
2023-07-18T14:46:55.590Z,78.70
2023-07-18T14:49:24.199Z,79.10
2023-07-18T14:51:52.417Z,80.10
2023-07-18T14:54:21.614Z,80.00
2023-07-18T14:56:51.147Z,78.90
2023-07-18T14:59:19.533Z,78.90
2023-07-18T15:01:47.972Z,78.00
2023-07-18T15:04:17.503Z,78.10
2023-07-18T15:06:47.384Z,77.90
2023-07-18T15:09:19.189Z,78.80
2023-07-18T15:11:47.916Z,79.30
2023-07-18T15:14:16.878Z,79.50
2023-07-18T15:16:45.954Z,80.70
2023-07-18T15:19:14.229Z,79.60
2023-07-18T15:21:44.885Z,79.40
2023-07-18T15:24:12.968Z,80.30
2023-07-18T15:26:42.053Z,80.80
2023-07-18T15:29:11.708Z,80.70
2023-07-18T15:31:41.631Z,80.60
2023-07-18T15:34:10.578Z,79.30
2023-07-18T15:36:38.908Z,79.80
2023-07-18T15:39:08.945Z,80.80
2023-07-18T15:41:37.466Z,81.00
2023-07-18T15:44:06.560Z,80.40
2023-07-18T15:46:38.050Z,80.80
2023-07-18T15:49:06.916Z,80.90
2023-07-18T15:51:35.413Z,81.40
2023-07-18T15:54:07.032Z,81.40
2023-07-18T15:56:38.518Z,81.60
2023-07-18T15:59:12.121Z,81.00
2023-07-18T16:01:42.304Z,80.70
2023-07-18T16:04:11.602Z,80.60
2023-07-18T16:06:40.079Z,80.50
2023-07-18T16:09:09.001Z,80.20
2023-07-18T16:11:38.584Z,79.90
2023-07-18T16:14:06.972Z,79.70
2023-07-18T16:16:35.485Z,79.60
2023-07-18T16:19:04.871Z,79.90
2023-07-18T16:21:34.325Z,79.40
2023-07-18T16:24:02.760Z,79.70
2023-07-18T16:26:32.122Z,79.10
2023-07-18T16:29:03.023Z,78.90
2023-07-18T16:31:31.543Z,78.60
2023-07-18T16:33:59.769Z,77.80
2023-07-18T16:36:28.190Z,76.90
2023-07-18T16:38:56.492Z,77.20
2023-07-18T16:41:24.726Z,75.80
2023-07-18T16:43:53.214Z,76.20
2023-07-18T16:46:23.245Z,75.10
2023-07-18T16:48:51.599Z,76.40
2023-07-18T16:51:20.009Z,77.80
2023-07-18T16:53:48.097Z,77.70
2023-07-18T16:56:16.686Z,79.20
2023-07-18T16:58:45.493Z,79.60
2023-07-18T17:01:16.732Z,79.90
2023-07-18T17:03:46.561Z,78.80
2023-07-18T17:06:14.874Z,78.20
2023-07-18T17:08:42.990Z,78.40
2023-07-18T17:11:11.133Z,78.80
2023-07-18T17:13:39.770Z,80.50
2023-07-18T17:16:08.381Z,81.00
2023-07-18T17:18:36.588Z,80.20
2023-07-18T17:21:06.426Z,79.10
2023-07-18T17:23:34.788Z,79.80
2023-07-18T17:26:03.648Z,78.50
2023-07-18T17:28:31.932Z,78.50
2023-07-18T17:31:00.679Z,78.30
2023-07-18T17:33:38.344Z,78.70
2023-07-18T17:36:08.760Z,78.20
2023-07-18T17:38:36.945Z,78.30
2023-07-18T17:41:05.284Z,78.00
2023-07-18T17:43:34.645Z,78.00
2023-07-18T17:46:02.902Z,77.40
2023-07-18T17:48:31.615Z,77.80
2023-07-18T17:50:59.723Z,77.70
2023-07-18T17:53:32.992Z,77.80
2023-07-18T17:56:01.925Z,78.00
2023-07-18T17:58:33.080Z,77.60
2023-07-18T18:01:01.795Z,77.90
2023-07-18T18:03:30.110Z,77.60
2023-07-18T18:05:58.759Z,77.60
2023-07-18T18:08:27.402Z,77.60
2023-07-18T18:10:57.538Z,77.50
2023-07-18T18:13:27.879Z,77.30
2023-07-18T18:16:07.508Z,77.30
2023-07-18T18:18:37.547Z,77.30
2023-07-18T18:21:06.545Z,77.60
2023-07-18T18:23:41.019Z,77.60
2023-07-18T18:26:11.764Z,77.70
2023-07-18T18:28:39.952Z,78.00
2023-07-18T18:31:08.391Z,77.80
2023-07-18T18:33:37.503Z,77.80
2023-07-18T18:36:06.528Z,78.00
2023-07-18T18:38:37.406Z,77.40
2023-07-18T18:41:07.221Z,76.90
2023-07-18T18:43:37.435Z,77.00
2023-07-18T18:46:06.584Z,77.40
2023-07-18T18:48:35.454Z,77.30
2023-07-18T18:51:03.998Z,77.30
2023-07-18T18:53:32.201Z,77.30
2023-07-18T18:56:12.519Z,77.20
2023-07-18T18:58:43.896Z,77.30
2023-07-18T19:01:12.758Z,77.60
2023-07-18T19:03:40.894Z,77.40
2023-07-18T19:06:09.501Z,77.30
2023-07-18T19:08:37.643Z,77.40
2023-07-18T19:11:08.144Z,77.50
2023-07-18T19:13:37.282Z,77.60
2023-07-18T19:16:09.140Z,77.40
2023-07-18T19:18:37.881Z,77.30
2023-07-18T19:21:06.151Z,76.80
2023-07-18T19:23:34.551Z,77.10
2023-07-18T19:26:03.042Z,77.20
2023-07-18T19:28:33.259Z,77.40
2023-07-18T19:31:03.484Z,77.00
2023-07-18T19:33:33.167Z,76.90
2023-07-18T19:36:01.306Z,77.20
2023-07-18T19:38:29.403Z,77.10
2023-07-18T19:40:57.751Z,77.60
2023-07-18T19:43:25.863Z,77.70
2023-07-18T19:45:54.232Z,78.20
2023-07-18T19:48:23.382Z,78.80
2023-07-18T19:50:54.076Z,78.10
2023-07-18T19:53:25.615Z,78.30
2023-07-18T19:55:55.731Z,78.30
2023-07-18T19:58:25.579Z,78.20
2023-07-18T20:00:54.124Z,78.70
2023-07-18T20:03:22.369Z,79.40
2023-07-18T20:05:50.732Z,79.80
2023-07-18T20:08:20.588Z,80.10
2023-07-18T20:10:49.143Z,80.10
2023-07-18T20:13:17.581Z,80.60
2023-07-18T20:15:46.379Z,80.40
2023-07-18T20:18:14.469Z,80.30
2023-07-18T20:20:46.328Z,80.30
2023-07-18T20:23:14.457Z,80.10
2023-07-18T20:25:45.058Z,80.50
2023-07-18T20:28:13.163Z,80.40
2023-07-18T20:30:41.545Z,80.50
2023-07-18T20:33:10.119Z,80.90
2023-07-18T20:35:38.599Z,80.70
2023-07-18T20:38:07.238Z,81.20
2023-07-18T20:40:35.542Z,82.00
2023-07-18T20:43:05.221Z,81.90
2023-07-18T20:45:33.978Z,81.70
2023-07-18T20:48:02.184Z,81.60
2023-07-18T20:50:33.964Z,82.00
2023-07-18T20:53:02.627Z,82.30
2023-07-18T20:55:31.497Z,83.10
2023-07-18T20:57:59.937Z,84.20
2023-07-18T21:00:30.639Z,86.70
2023-07-18T21:03:01.082Z,89.10
2023-07-18T21:05:29.945Z,89.60
2023-07-18T21:08:01.866Z,90.20
2023-07-18T21:10:30.353Z,91.20
2023-07-18T21:12:59.670Z,91.90
2023-07-18T21:15:27.824Z,91.80
2023-07-18T21:17:57.483Z,91.80
2023-07-18T21:20:26.006Z,92.00
2023-07-18T21:22:54.825Z,92.50
2023-07-18T21:25:24.333Z,93.00
2023-07-18T21:27:52.437Z,92.80
2023-07-18T21:30:21.202Z,93.00
2023-07-18T21:32:49.356Z,93.60
2023-07-18T21:35:20.132Z,94.20
2023-07-18T21:37:48.492Z,94.50
2023-07-18T21:40:16.707Z,94.50
2023-07-18T21:42:45.067Z,96.00
2023-07-18T21:45:13.201Z,97.00
2023-07-18T21:47:41.737Z,98.30
2023-07-18T21:50:10.070Z,99.20
2023-07-18T21:52:39.887Z,99.90
2023-07-18T21:55:09.305Z,99.90
2023-07-18T21:57:37.505Z,99.90
2023-07-18T22:00:06.412Z,99.90
2023-07-18T22:02:41.089Z,99.90
2023-07-18T22:05:09.598Z,99.90
2023-07-18T22:07:38.043Z,99.90
2023-07-18T22:10:09.755Z,99.90
2023-07-18T22:12:38.408Z,99.90
2023-07-18T22:15:08.979Z,99.90
2023-07-18T22:17:37.466Z,99.90
2023-07-18T22:20:06.547Z,99.90
2023-07-18T22:22:34.751Z,99.90
2023-07-18T22:25:03.105Z,99.90
2023-07-18T22:27:32.764Z,99.90
2023-07-18T22:30:01.177Z,99.90
2023-07-18T22:32:32.828Z,99.90
2023-07-18T22:35:01.644Z,99.90
2023-07-18T22:37:31.107Z,99.90
2023-07-18T22:39:59.418Z,99.90
2023-07-18T22:42:27.957Z,99.90
2023-07-18T22:44:57.935Z,99.90
2023-07-18T22:47:26.095Z,99.90
2023-07-18T22:49:54.530Z,99.90
2023-07-18T22:52:22.705Z,99.90
2023-07-18T22:54:51.765Z,99.90
2023-07-18T22:57:22.277Z,99.90
2023-07-18T22:59:50.411Z,99.90
2023-07-18T23:02:20.119Z,99.90
2023-07-18T23:04:49.095Z,99.90
2023-07-18T23:07:17.253Z,99.90
2023-07-18T23:09:45.454Z,99.90
2023-07-18T23:12:16.442Z,99.90
2023-07-18T23:14:44.866Z,99.90
2023-07-18T23:17:15.615Z,99.90
2023-07-18T23:19:45.071Z,99.90
2023-07-18T23:22:13.662Z,99.90
2023-07-18T23:24:41.774Z,99.90
2023-07-18T23:27:10.368Z,99.90
2023-07-18T23:29:38.483Z,99.90
2023-07-18T23:32:07.094Z,99.90
2023-07-18T23:34:35.230Z,99.90
2023-07-18T23:37:04.865Z,99.90
2023-07-18T23:39:33.440Z,99.90
2023-07-18T23:42:01.557Z,99.90
2023-07-18T23:44:30.153Z,99.90
2023-07-18T23:46:58.312Z,99.90
2023-07-18T23:49:26.772Z,99.90
2023-07-18T23:51:54.874Z,99.90
2023-07-18T23:54:24.788Z,99.90
2023-07-18T23:56:52.996Z,99.90
2023-07-18T23:59:21.468Z,99.90
